createdAt,value
2023-04-30T00:03:34.576Z,93015.09
2023-04-30T00:13:47.471Z,92852.94
2023-04-30T00:24:00.507Z,92616.66
2023-04-30T00:34:13.504Z,92478.06
2023-04-30T00:44:26.534Z,92337.47
2023-04-30T00:54:46.518Z,92101.62
2023-04-30T01:04:59.523Z,91762.06
2023-04-30T01:15:17.515Z,91499.28
2023-04-30T01:25:42.517Z,91731.72
2023-04-30T01:36:36.528Z,91588.31
2023-04-30T01:46:51.558Z,91478.44
2023-04-30T01:57:12.590Z,91452.41
2023-04-30T02:07:53.590Z,91476.09
2023-04-30T02:18:06.617Z,91422.81
2023-04-30T02:28:19.582Z,91349.56
2023-04-30T02:38:32.575Z,91361.97
2023-04-30T02:48:45.567Z,91316.84
2023-04-30T02:58:58.613Z,91220.50
2023-04-30T03:09:11.574Z,91206.81
2023-04-30T03:19:25.710Z,91096.13
2023-04-30T03:29:38.591Z,91164.63
2023-04-30T03:39:51.750Z,91229.44
2023-04-30T03:50:11.613Z,91489.00
2023-04-30T04:00:24.663Z,91611.78
2023-04-30T04:10:37.643Z,91777.22
2023-04-30T04:20:50.676Z,91887.84
2023-04-30T04:31:03.656Z,91960.91
2023-04-30T04:41:16.680Z,92021.97
2023-04-30T04:51:36.652Z,91953.97
2023-04-30T05:01:49.767Z,91812.38
2023-04-30T05:12:02.668Z,91915.34
2023-04-30T05:22:15.706Z,92205.44
2023-04-30T05:32:30.714Z,92836.00
2023-04-30T05:42:43.711Z,92967.38
2023-04-30T05:53:03.730Z,93345.06
2023-04-30T06:03:16.811Z,93937.06
2023-04-30T06:13:30.736Z,94250.69
2023-04-30T06:23:43.734Z,94507.53
2023-04-30T06:33:56.793Z,94736.50
2023-04-30T06:44:09.747Z,95088.41
2023-04-30T06:54:30.795Z,95342.63
2023-04-30T07:04:43.739Z,95537.94
2023-04-30T07:14:56.788Z,95735.38
2023-04-30T07:25:09.752Z,95816.31
2023-04-30T07:35:22.832Z,96090.44
2023-04-30T07:45:35.763Z,96598.16
2023-04-30T07:55:48.825Z,97055.56
2023-04-30T08:06:01.823Z,97184.75
2023-04-30T08:16:14.875Z,97333.41
2023-04-30T08:26:27.844Z,97492.06
2023-04-30T08:36:40.848Z,97562.94
2023-04-30T08:46:53.824Z,97534.06
2023-04-30T08:57:05.895Z,97644.78
2023-04-30T09:07:21.862Z,97692.22
2023-04-30T09:17:34.925Z,97732.97
2023-04-30T09:27:47.876Z,97858.75
2023-04-30T09:37:54.378Z,97889.44
2023-04-30T09:48:13.146Z,97903.38
2023-04-30T09:58:24.669Z,97691.66
2023-04-30T10:08:45.201Z,97878.22
2023-04-30T10:18:53.484Z,97809.91
2023-04-30T10:29:02.724Z,97837.00
2023-04-30T10:39:09.867Z,97863.69
2023-04-30T10:49:16.677Z,97858.81
2023-04-30T10:59:24.045Z,97901.41
2023-04-30T11:09:45.217Z,97945.78
2023-04-30T11:19:52.951Z,98024.56
2023-04-30T11:30:00.186Z,98161.03
2023-04-30T11:40:12.246Z,98287.75
2023-04-30T11:50:20.813Z,98391.50
2023-04-30T12:00:32.444Z,98438.50
2023-04-30T12:10:38.908Z,98450.09
2023-04-30T12:20:45.455Z,98476.37
2023-04-30T12:30:51.905Z,98525.38
2023-04-30T12:40:58.671Z,98493.28
2023-04-30T12:51:06.352Z,98492.22
2023-04-30T13:01:18.400Z,98497.00
2023-04-30T13:11:25.575Z,98506.56
2023-04-30T13:21:32.204Z,98493.75
2023-04-30T13:31:38.666Z,98494.75
2023-04-30T13:41:45.341Z,98491.72
2023-04-30T13:51:51.989Z,98489.50
2023-04-30T14:01:58.708Z,98487.25
2023-04-30T14:12:05.209Z,98496.41
2023-04-30T14:22:11.902Z,98506.78
2023-04-30T14:32:18.626Z,98501.28
2023-04-30T14:42:25.249Z,98487.16
2023-04-30T14:52:31.743Z,98503.12
2023-04-30T15:42:35.467Z,98504.47
2023-04-30T15:52:40.972Z,98504.47
2023-04-30T16:02:47.602Z,98536.22
2023-04-30T16:12:54.093Z,98541.28
2023-04-30T16:23:00.698Z,98562.97
2023-04-30T16:33:08.369Z,98567.94
2023-04-30T16:43:14.969Z,98570.03
2023-04-30T16:53:23.443Z,98573.72
2023-04-30T17:03:31.984Z,98582.38
2023-04-30T17:13:39.056Z,98621.06
2023-04-30T17:23:45.560Z,98660.41
2023-04-30T17:33:52.075Z,98676.56
2023-04-30T17:43:59.220Z,98692.88
2023-04-30T17:54:06.765Z,98701.06
2023-04-30T18:04:20.753Z,98701.22
2023-04-30T18:14:27.398Z,98682.25
2023-04-30T18:24:33.828Z,98644.09
2023-04-30T18:34:40.460Z,98606.56
2023-04-30T18:44:47.070Z,98562.53
2023-04-30T18:54:53.677Z,98499.91
2023-04-30T19:05:00.141Z,98441.84
2023-04-30T19:15:09.438Z,98357.59
2023-04-30T19:25:15.900Z,98290.53
2023-04-30T19:35:22.368Z,98202.75
2023-04-30T19:45:28.865Z,98091.91
2023-04-30T19:55:35.669Z,97927.09
2023-04-30T20:05:42.228Z,97748.56
2023-04-30T20:15:48.798Z,97554.37
2023-04-30T20:25:56.417Z,97436.22
2023-04-30T20:36:04.119Z,97340.13
2023-04-30T20:46:15.588Z,97279.78
2023-04-30T20:56:22.659Z,96668.50
2023-04-30T21:06:29.433Z,96621.50
2023-04-30T21:16:36.435Z,96676.81
2023-04-30T21:26:43.088Z,96778.59
2023-04-30T21:36:49.603Z,96837.94
2023-04-30T21:46:56.633Z,96985.84
2023-04-30T21:57:04.021Z,97046.72
2023-04-30T22:07:10.569Z,97082.59
2023-04-30T22:17:17.305Z,97190.72
2023-04-30T22:27:24.491Z,97248.31
2023-04-30T22:37:32.508Z,97261.94
2023-04-30T22:47:39.464Z,97266.78
2023-04-30T22:57:45.954Z,97345.66
2023-04-30T23:07:52.622Z,97264.44
2023-04-30T23:18:01.465Z,97241.94
2023-04-30T23:28:07.967Z,97148.09
2023-04-30T23:38:15.572Z,97219.81
2023-04-30T23:48:22.604Z,97252.41
2023-04-30T23:58:31.693Z,97266.84
